»·PEaware :: AAL990 KIFP-KBUR

AAL990 :: KIFP-KBUR

FLIGHT INFORMATION

Flight Status: Arrived
Operator:
American Airlines
More flights by this operator :: More flights under this callsign
Pilot: Brett P. (26886)
Aircraft: EMBRAER EMB-145XR
(E45X)
More flights by this aircraft type
Origin: KIFP Laughlin/Bullhead Intl
United States
Destination: KBUR Bob Hope-Burbank
United States
More flights between these airports :: More routes between these airports
Route: +EED JANNY5
File this flight plan on PilotEdge
Remarks:
Altitude:
(Current/Filed)
28,000ft
Speed:
(Current/Filed)
400kts
Departed: 17-Apr-20 02:46 PM
Arrived: 17-Apr-20 03:30 PM
Distance/Time
Traveled:
196nm/0:44
Distance/Time
To Go:
Arrived

Flight Plot

Page will automatically refresh every two minutes.

Flight plan parsing failed; only flown route is shown


Map Options




Map Legend


Flown Route
Filed Route
Departure Airport
Arrival Airport
Navaid (VOR, NDB)
Fix

Horizontal Profiles

Position Reports

Time Latitude Longitude Heading Altitude Ground
Speed
17-Apr-20 14:15 35.164718 -114.556264 84 707ft 0kts
17-Apr-20 14:16 35.164718 -114.556264 84 707ft 0kts
17-Apr-20 14:17 35.164718 -114.556264 84 707ft 0kts
17-Apr-20 14:18 35.164718 -114.556264 84 707ft 0kts
17-Apr-20 14:19 35.164718 -114.556264 84 707ft 0kts
17-Apr-20 14:20 35.164718 -114.556264 84 707ft 0kts
17-Apr-20 14:21 35.164718 -114.556264 84 707ft 0kts
17-Apr-20 14:22 35.164718 -114.556264 84 707ft 0kts
17-Apr-20 14:23 35.164718 -114.556264 84 707ft 0kts
17-Apr-20 14:24 35.164718 -114.556264 84 707ft 0kts
17-Apr-20 14:25 35.164718 -114.556264 84 707ft 0kts
17-Apr-20 14:26 35.164718 -114.556264 84 707ft 0kts
17-Apr-20 14:27 35.164718 -114.556264 84 707ft 0kts
17-Apr-20 14:28 35.164718 -114.556264 84 707ft 0kts
17-Apr-20 14:29 35.164718 -114.556264 84 707ft 0kts
17-Apr-20 14:30 35.164718 -114.556264 84 707ft 0kts
17-Apr-20 14:31 35.164718 -114.556264 84 707ft 0kts
17-Apr-20 14:32 35.164718 -114.556264 84 707ft 0kts
17-Apr-20 14:33 35.164718 -114.556264 84 707ft 0kts
17-Apr-20 14:34 35.164718 -114.556264 84 707ft 0kts
17-Apr-20 14:35 35.164718 -114.556264 84 707ft 0kts
17-Apr-20 14:36 35.164718 -114.556264 84 707ft 0kts
17-Apr-20 14:37 35.164707 -114.556402 79 707ft 2kts
17-Apr-20 14:38 35.164319 -114.556907 12 707ft 2kts
17-Apr-20 14:39 35.164151 -114.556925 356 707ft 0kts
17-Apr-20 14:40 35.164158 -114.556925 356 707ft 0kts
17-Apr-20 14:41 35.165080 -114.557424 270 707ft 7kts
17-Apr-20 14:42 35.166107 -114.559018 307 707ft 0kts
17-Apr-20 14:43 35.166107 -114.559018 307 707ft 0kts
17-Apr-20 14:44 35.165369 -114.560147 176 707ft 26kts
17-Apr-20 14:45 35.126206 -114.551384 167 2546ft 212kts
17-Apr-20 14:46 35.059274 -114.532753 168 5586ft 258kts
17-Apr-20 14:47 34.987257 -114.518183 169 6998ft 263kts
17-Apr-20 14:48 34.919424 -114.504652 168 8626ft 230kts
17-Apr-20 14:49 34.843525 -114.489454 170 12351ft 308kts
17-Apr-20 14:50 34.764094 -114.509865 237 16952ft 332kts
17-Apr-20 14:51 34.768670 -114.622371 267 21600ft 336kts
17-Apr-20 14:52 34.771920 -114.743005 266 22897ft 407kts
17-Apr-20 14:53 34.774926 -114.884547 266 22878ft 419kts
17-Apr-20 14:54 34.777707 -115.026550 266 22884ft 419kts
17-Apr-20 14:55 34.780173 -115.158403 265 27023ft 394kts
17-Apr-20 14:56 34.782571 -115.294053 265 27895ft 400kts
17-Apr-20 14:57 34.784792 -115.429195 265 27907ft 399kts
17-Apr-20 14:58 34.786882 -115.564656 265 27918ft 399kts
17-Apr-20 14:59 34.788812 -115.700246 264 27931ft 400kts
17-Apr-20 15:00 34.790710 -115.834805 264 27940ft 398kts
17-Apr-20 15:01 34.793287 -115.969932 264 27946ft 398kts
17-Apr-20 15:02 34.795725 -116.105517 265 27961ft 401kts
17-Apr-20 15:03 34.797912 -116.241051 263 27148ft 401kts
17-Apr-20 15:04 34.793484 -116.377662 262 25673ft 407kts
17-Apr-20 15:05 34.788768 -116.516584 262 24194ft 414kts
17-Apr-20 15:06 34.777851 -116.656383 258 23971ft 415kts
17-Apr-20 15:07 34.764194 -116.796311 258 23968ft 417kts
17-Apr-20 15:08 34.750227 -116.936656 258 23636ft 418kts
17-Apr-20 15:09 34.735920 -117.077761 258 22316ft 409kts
17-Apr-20 15:10 34.722528 -117.208052 258 20696ft 385kts
17-Apr-20 15:11 34.709225 -117.336297 259 19102ft 379kts
17-Apr-20 15:12 34.696027 -117.462090 259 17612ft 372kts
17-Apr-20 15:13 34.682828 -117.586223 259 16453ft 366kts
17-Apr-20 15:14 34.669897 -117.708068 259 15356ft 360kts
17-Apr-20 15:15 34.657121 -117.827848 259 14256ft 354kts
17-Apr-20 15:16 34.647023 -117.921135 259 13786ft 351kts
17-Apr-20 15:17 34.631219 -118.062868 256 12521ft 344kts
17-Apr-20 15:18 34.606892 -118.174083 253 11053ft 332kts
17-Apr-20 15:19 34.585130 -118.271736 253 9217ft 282kts
17-Apr-20 15:20 34.564773 -118.360166 253 7974ft 247kts
17-Apr-20 15:21 34.519402 -118.411297 226 8004ft 228kts
17-Apr-20 15:22 34.476967 -118.468557 226 8004ft 227kts
17-Apr-20 15:23 34.420811 -118.482306 148 6846ft 231kts
17-Apr-20 15:24 34.354941 -118.456702 180 5712ft 275kts
17-Apr-20 15:25 34.288833 -118.437863 160 2805ft 233kts
17-Apr-20 15:26 34.257219 -118.387452 122 2770ft 139kts
17-Apr-20 15:27 34.227931 -118.364847 166 1478ft 125kts
17-Apr-20 15:28 34.199025 -118.356805 166 715ft 57kts
17-Apr-20 15:29 34.195388 -118.356802 341 706ft 0kts
17-Apr-20 15:31 34.195541 -118.356859 345 706ft 4kts
17-Apr-20 15:32 34.197201 -118.353861 91 702ft 16kts
17-Apr-20 15:33 34.196797 -118.352427 180 700ft 0kts

Navigation Log

Ident Type
Flight plan parsing failed, navigation log unavailable